Allendorf, Iowa
Current Conditions -  °F | °C
As of 8:55 PM on Thursday 18 Dec 2014 (Local Time) from KSHL Reporting Station
Overcast Overcast  
Wind Chill: -7°   Ceiling: 1400
Heat Index: -3°   Visibility: 10mi
Dew Point: -4°   Wind: 7mph
Humidity: 93%   Direction: 140°SE
Pressure: 30.18"   Gusts: NA
Location:  43.41°N, 95.64°W
Report Text: KSHL 190255Z AUTO 14006KT 10SM OVC014 M03/M04 A3018 RMK AO2
Loading
Personal Weather Stations






























Interactive Weather Map New forecast layout! Learn more

10-Day Weather Forecast

Advertisements
Track Severe Weather on mobile